Time;durP1;ratioP1;P1;durP2;ratioP2;P2;SDS_P1;SDS_P2;PMS_P1;PMS_P2;Temp;Humidity;BMP_temperature;BMP_pressure;BME280_temperature;BME280_humidity;BME280_pressure;Samples;Min_cycle;Max_cycle;Signal;HPM_P1;HPM_P2
2022/04/18 00:00:06;;;;;;;;;;;13.30;64.70;13.70;99452.00;;;;334631;29;91303;-89
2022/04/18 00:00:19;;;;;;;;;;;13.30;64.70;13.70;99454.00;;;;332111;28;95303;-89
2022/04/18 00:00:30;;;;;;;;;;;13.30;64.80;13.70;99456.00;;;;334597;29;91980;-88
2022/04/18 00:00:42;;;;;;;;;;;13.30;64.80;13.70;99462.00;;;;341604;28;95952;-88
2022/04/18 00:00:54;;;;;;;;;;;13.30;64.80;13.70;99457.00;;;;341378;28;91324;-89
2022/04/18 00:01:06;;;;;;;;;;;13.30;64.70;13.70;99459.00;;;;341700;28;93778;-88
2022/04/18 00:01:18;;;;;;;;;;;13.30;64.70;13.70;99460.00;;;;340917;28;91914;-88
2022/04/18 00:01:30;;;;;;;;;;;13.30;64.70;13.60;99451.00;;;;338748;28;93512;-88
2022/04/18 00:01:42;;;;;;;;;;;13.30;64.80;13.70;99461.00;;;;339801;28;91221;-88
2022/04/18 00:01:54;;;;;;;;;;;13.30;64.70;13.70;99460.00;;;;333940;29;93442;-89
2022/04/18 00:02:06;;;;;;;;;;;13.30;64.70;13.60;99456.00;;;;335880;29;91270;-88
2022/04/18 00:02:18;;;;;;;;;;;13.30;64.80;13.50;99461.00;;;;342990;28;94938;-88
2022/04/18 00:02:30;;;;;;;;;;;13.30;64.80;13.60;99460.00;;;;341375;28;92007;-88
2022/04/18 00:02:41;;;;;;;;;;;13.30;64.80;13.60;99458.00;;;;338868;28;95922;-88
2022/04/18 00:02:53;;;;;;;;;;;13.30;64.90;13.60;99460.00;;;;339978;28;92079;-89
2022/04/18 00:03:05;;;;;;;;;;;13.30;65.00;13.60;99458.00;;;;343047;28;95788;-88
2022/04/18 00:03:17;;;;;;;;;;;13.30;65.30;13.60;99455.00;;;;341439;28;91890;-88
2022/04/18 00:03:29;;;;;;;;;;;13.30;65.20;13.70;99461.00;;;;340074;28;95741;-88
2022/04/18 00:03:40;;;;;;;;;;;13.20;65.10;13.60;99451.00;;;;334617;29;91987;-89
2022/04/18 00:03:53;;;;;;;;;;;13.20;65.20;13.70;99453.00;;;;334752;29;95579;-89
2022/04/18 00:04:05;;;;;;;;;;;13.20;65.00;13.70;99460.00;;;;334594;29;91288;-88
2022/04/18 00:04:16;;;;;;;;;;;13.20;64.80;13.70;99454.00;;;;337207;28;94871;-88
2022/04/18 00:04:28;;;;;;;;;;;13.30;65.40;13.80;99450.00;;;;331737;29;91364;-88
2022/04/18 00:04:40;;;;;;;;;;;13.30;64.80;13.80;99458.00;;;;334701;29;96147;-88
2022/04/18 00:04:52;;;;;;;;;;;13.30;64.80;13.70;99450.00;;;;343071;28;91912;-88
2022/04/18 00:05:04;;;;;;;;;;;13.30;64.90;13.80;99458.00;;;;341625;28;95045;-89
2022/04/18 00:05:16;;;;;;;;;;;13.30;64.90;13.70;99456.00;;;;335880;28;91340;-88
2022/04/18 00:05:27;;;;;;;;;;;13.30;64.90;13.60;99464.00;;;;336172;28;95492;-88
2022/04/18 00:05:39;;;;;;;;;;;13.30;65.00;13.70;99462.00;;;;335764;28;92019;-89
2022/04/18 00:05:51;;;;;;;;;;;13.30;65.00;13.70;99461.00;;;;333520;29;94849;-88
2022/04/18 00:06:03;;;;;;;;;;;13.20;64.90;13.70;99455.00;;;;334501;29;91383;-89
2022/04/18 00:06:14;;;;;;;;;;;13.30;64.90;13.70;99455.00;;;;334786;29;94160;-88
2022/04/18 00:06:26;;;;;;;;;;;13.30;64.90;13.70;99453.00;;;;335794;29;91959;-89
2022/04/18 00:06:38;;;;;;;;;;;13.30;64.90;13.70;99452.00;;;;334827;29;95772;-88
2022/04/18 00:06:49;;;;;;;;;;;13.30;64.90;13.70;99457.00;;;;335856;29;91267;-88
2022/04/18 00:07:02;;;;;;;;;;;13.20;64.80;13.60;99463.00;;;;334864;29;95006;-88
2022/04/18 00:07:14;;;;;;;;;;;13.30;65.00;13.60;99461.00;;;;333291;29;91117;-88
2022/04/18 00:07:25;;;;;;;;;;;13.30;64.90;13.60;99461.00;;;;331887;28;94696;-89
2022/04/18 00:07:37;;;;;;;;;;;13.20;64.80;13.60;99453.00;;;;333226;29;92032;-88
2022/04/18 00:07:49;;;;;;;;;;;13.20;64.70;13.60;99451.00;;;;335013;29;96167;-88
2022/04/18 00:08:02;;;;;;;;;;;13.20;64.60;13.60;99457.00;;;;334349;29;91809;-88
2022/04/18 00:08:14;;;;;;;;;;;13.20;64.70;13.50;99457.00;;;;337403;28;92454;-89
2022/04/18 00:08:26;;;;;;;;;;;13.20;64.70;13.50;99452.00;;;;334872;28;91331;-88
2022/04/18 00:08:38;;;;;;;;;;;13.20;64.70;13.50;99447.00;;;;334750;29;95975;-88
2022/04/18 00:08:49;;;;;;;;;;;13.20;64.70;13.40;99454.00;;;;333242;29;92043;-89
2022/04/18 00:09:05;;;;;;;;;;;13.20;65.00;13.40;99459.00;;;;334909;29;93085;-88
2022/04/18 00:09:16;;;;;;;;;;;13.20;65.10;13.40;99445.00;;;;334610;29;91112;-88
2022/04/18 00:09:33;;;;;;;;;;;13.20;65.20;13.40;99452.00;;;;334738;29;96587;-87
2022/04/18 00:09:45;;;;;;;;;;;13.20;65.20;13.50;99453.00;;;;333272;29;91872;-88
2022/04/18 00:09:56;;;;;;;;;;;13.20;65.20;13.60;99454.00;;;;336203;28;92517;-88
2022/04/18 00:10:08;;;;;;;;;;;13.20;65.10;13.60;99448.00;;;;334558;29;90434;-88
2022/04/18 00:10:20;;;;;;;;;;;13.20;65.20;13.60;99452.00;;;;334485;29;92478;-87
2022/04/18 00:10:32;;;;;;;;;;;13.20;65.00;13.60;99442.00;;;;339992;28;93268;-86
2022/04/18 00:10:44;;;;;;;;;;;13.20;65.00;13.40;99450.00;;;;334756;29;95498;-87
2022/04/18 00:10:56;;;;;;;;;;;13.10;64.90;13.40;99448.00;;;;334274;28;91261;-88
2022/04/18 00:11:07;;;;;;;;;;;13.20;64.90;13.50;99450.00;;;;336145;28;93518;-88
2022/04/18 00:11:20;;;;;;;;;;;13.20;64.80;13.50;99456.00;;;;342337;28;91161;-88
2022/04/18 00:11:32;;;;;;;;;;;13.20;64.90;13.50;99450.00;;;;338838;28;95034;-87
2022/04/18 00:11:43;;;;;;;;;;;13.20;64.90;13.40;99450.00;;;;341376;28;91940;-89
2022/04/18 00:11:56;;;;;;;;;;;13.20;65.00;13.50;99455.00;;;;337496;28;93078;-88
2022/04/18 00:12:08;;;;;;;;;;;13.20;65.20;13.60;99445.00;;;;341413;28;91358;-88
2022/04/18 00:12:20;;;;;;;;;;;13.10;65.10;13.60;99448.00;;;;341667;28;94853;-88
2022/04/18 00:12:31;;;;;;;;;;;13.10;65.10;13.50;99447.00;;;;334549;29;91952;-88
2022/04/18 00:12:44;;;;;;;;;;;13.10;65.00;13.50;99457.00;;;;341576;28;93601;-88
2022/04/18 00:12:55;;;;;;;;;;;13.10;65.00;13.50;99447.00;;;;335824;28;92070;-88
2022/04/18 00:13:07;;;;;;;;;;;13.10;65.10;13.50;99453.00;;;;332212;29;93206;-88
2022/04/18 00:13:19;;;;;;;;;;;13.10;65.00;13.60;99458.00;;;;334187;29;92028;-88
2022/04/18 00:13:31;;;;;;;;;;;13.10;65.00;13.60;99451.00;;;;333058;29;96714;-88
2022/04/18 00:13:43;;;;;;;;;;;13.10;64.90;13.60;99452.00;;;;331978;29;91955;-88
2022/04/18 00:13:55;;;;;;;;;;;13.10;64.80;13.50;99453.00;;;;341183;28;94776;-88
2022/04/18 00:14:06;;;;;;;;;;;13.10;64.80;13.50;99449.00;;;;342739;28;91947;-88
2022/04/18 00:14:18;;;;;;;;;;;13.20;64.90;13.40;99448.00;;;;334846;29;95053;-88
2022/04/18 00:14:30;;;;;;;;;;;13.10;65.20;13.50;99450.00;;;;341407;28;92020;-88
2022/04/18 00:14:42;;;;;;;;;;;13.10;65.10;13.50;99440.00;;;;341564;28;94387;-88
2022/04/18 00:14:54;;;;;;;;;;;13.10;65.20;13.40;99448.00;;;;337080;28;92118;-88
2022/04/18 00:15:06;;;;;;;;;;;13.10;65.40;13.50;99449.00;;;;335923;28;95736;-88
2022/04/18 00:15:18;;;;;;;;;;;13.10;65.20;13.60;99450.00;;;;334550;29;91901;-88
2022/04/18 00:15:30;;;;;;;;;;;13.10;65.20;13.60;99457.00;;;;334679;28;95202;-88
2022/04/18 00:15:41;;;;;;;;;;;13.10;65.20;13.50;99450.00;;;;334507;29;91982;-88
2022/04/18 00:15:53;;;;;;;;;;;13.10;65.10;13.60;99453.00;;;;336159;28;94549;-89
2022/04/18 00:16:05;;;;;;;;;;;13.10;65.10;13.60;99451.00;;;;334565;28;91253;-89
2022/04/18 00:16:17;;;;;;;;;;;13.10;65.00;13.60;99454.00;;;;334506;29;95503;-89
2022/04/18 00:16:29;;;;;;;;;;;13.10;64.90;13.60;99449.00;;;;333980;29;91987;-88
2022/04/18 00:16:41;;;;;;;;;;;13.10;64.90;13.60;99445.00;;;;333413;29;95926;-88
2022/04/18 00:16:53;;;;;;;;;;;13.10;64.90;13.60;99447.00;;;;333806;28;91206;-88
2022/04/18 00:17:09;;;;;;;;;;;13.10;64.90;13.60;99451.00;;;;334913;29;95749;-88
2022/04/18 00:17:21;;;;;;;;;;;13.10;64.80;13.60;99449.00;;;;334564;28;92059;-88
2022/04/18 00:17:32;;;;;;;;;;;13.10;64.80;13.50;99446.00;;;;335907;28;95806;-88
2022/04/18 00:17:44;;;;;;;;;;;13.10;65.10;13.40;99441.00;;;;335817;29;92088;-88
2022/04/18 00:17:56;;;;;;;;;;;13.10;65.20;13.40;99449.00;;;;333464;29;95854;-88
2022/04/18 00:18:08;;;;;;;;;;;13.10;65.40;13.40;99451.00;;;;335836;28;91352;-88
2022/04/18 00:18:19;;;;;;;;;;;13.10;65.70;13.40;99437.00;;;;336139;28;92853;-89
2022/04/18 00:18:31;;;;;;;;;;;13.10;66.30;13.50;99441.00;;;;334508;29;91944;-88
2022/04/18 00:18:43;;;;;;;;;;;13.10;65.50;13.40;99442.00;;;;335981;28;95615;-88
2022/04/18 00:18:55;;;;;;;;;;;13.10;65.60;13.40;99448.00;;;;334259;29;92082;-88
2022/04/18 00:19:07;;;;;;;;;;;13.10;65.50;13.40;99452.00;;;;334914;29;93545;-88
2022/04/18 00:19:18;;;;;;;;;;;13.10;65.40;13.50;99452.00;;;;334537;28;92058;-88
2022/04/18 00:19:30;;;;;;;;;;;13.10;65.30;13.50;99445.00;;;;331701;29;95532;-88
2022/04/18 00:19:42;;;;;;;;;;;13.10;65.20;13.40;99450.00;;;;331929;29;92488;-88
2022/04/18 00:19:55;;;;;;;;;;;13.10;65.20;13.50;99445.00;;;;335134;29;96007;-88
2022/04/18 00:20:07;;;;;;;;;;;13.10;65.20;13.50;99453.00;;;;337136;28;91215;-88
2022/04/18 00:20:19;;;;;;;;;;;13.10;65.10;13.50;99447.00;;;;336087;29;95171;-88
2022/04/18 00:20:30;;;;;;;;;;;13.10;65.10;13.60;99454.00;;;;334597;29;92059;-88
2022/04/18 00:20:42;;;;;;;;;;;13.10;65.40;13.60;99453.00;;;;333339;28;95688;-88
2022/04/18 00:20:54;;;;;;;;;;;13.10;65.40;13.70;99460.00;;;;334523;29;92082;-89
2022/04/18 00:21:06;;;;;;;;;;;13.10;65.40;13.60;99453.00;;;;334757;29;96051;-88
2022/04/18 00:21:18;;;;;;;;;;;13.10;65.20;13.70;99452.00;;;;333315;29;91227;-88
2022/04/18 00:21:31;;;;;;;;;;;13.10;65.20;13.70;99452.00;;;;340216;28;94918;-88
2022/04/18 00:21:43;;;;;;;;;;;13.10;65.20;13.70;99450.00;;;;339979;28;92160;-88
2022/04/18 00:21:54;;;;;;;;;;;13.10;65.10;13.60;99451.00;;;;333444;29;96016;-88
2022/04/18 00:22:06;;;;;;;;;;;13.10;65.10;13.50;99458.00;;;;333281;28;91123;-89
2022/04/18 00:22:18;;;;;;;;;;;13.20;65.20;13.60;99449.00;;;;335514;28;94906;-88
2022/04/18 00:22:30;;;;;;;;;;;13.10;65.20;13.50;99455.00;;;;333440;29;92206;-88
2022/04/18 00:22:42;;;;;;;;;;;13.10;65.40;13.50;99451.00;;;;332086;29;96176;-88
2022/04/18 00:22:53;;;;;;;;;;;13.10;65.30;13.40;99447.00;;;;334929;28;92002;-88
2022/04/18 00:23:05;;;;;;;;;;;13.10;65.20;13.50;99449.00;;;;334812;29;93474;-88
2022/04/18 00:23:17;;;;;;;;;;;13.10;65.30;13.40;99451.00;;;;334639;29;91877;-87
2022/04/18 00:23:29;;;;;;;;;;;13.10;65.60;13.40;99446.00;;;;334630;28;95009;-90
2022/04/18 00:23:40;;;;;;;;;;;13.10;65.40;13.50;99446.00;;;;334554;29;91934;-90
2022/04/18 00:23:52;;;;;;;;;;;13.10;65.50;13.40;99447.00;;;;334874;29;95211;-90
2022/04/18 00:24:04;;;;;;;;;;;13.10;65.40;13.50;99447.00;;;;334632;29;91299;-90
2022/04/18 00:24:19;;;;;;;;;;;13.10;65.30;13.50;99444.00;;;;334772;28;94190;-88
2022/04/18 00:24:31;;;;;;;;;;;13.10;65.40;13.60;99451.00;;;;334713;29;92022;-91
2022/04/18 00:24:43;;;;;;;;;;;13.10;65.40;13.50;99451.00;;;;335989;28;95996;-90
2022/04/18 00:24:55;;;;;;;;;;;13.10;65.40;13.50;99449.00;;;;335853;28;92013;-89
2022/04/18 00:25:07;;;;;;;;;;;13.10;65.40;13.50;99452.00;;;;333603;29;95722;-91
2022/04/18 00:25:18;;;;;;;;;;;13.10;65.20;13.40;99447.00;;;;335088;29;92060;-90
2022/04/18 00:25:30;;;;;;;;;;;13.10;65.30;13.50;99445.00;;;;339831;28;95606;-90
2022/04/18 00:25:42;;;;;;;;;;;13.10;65.30;13.50;99449.00;;;;340033;28;92120;-91
2022/04/18 00:25:54;;;;;;;;;;;13.10;65.20;13.50;99442.00;;;;340313;28;95034;-90
2022/04/18 00:26:06;;;;;;;;;;;13.10;65.30;13.50;99446.00;;;;332970;29;91344;-91
2022/04/18 00:26:18;;;;;;;;;;;13.10;65.40;13.60;99448.00;;;;333552;29;95120;-90
2022/04/18 00:26:29;;;;;;;;;;;13.10;66.00;13.50;99449.00;;;;335928;29;92022;-90
2022/04/18 00:26:42;;;;;;;;;;;13.10;65.40;13.50;99454.00;;;;336131;28;95722;-91
2022/04/18 00:26:54;;;;;;;;;;;13.10;65.40;13.60;99440.00;;;;335845;28;92114;-90
2022/04/18 00:27:05;;;;;;;;;;;13.10;65.30;13.60;99450.00;;;;334907;29;94575;-90
2022/04/18 00:27:17;;;;;;;;;;;13.10;65.30;13.60;99442.00;;;;340053;28;91902;-91
2022/04/18 00:27:29;;;;;;;;;;;13.10;65.20;13.60;99445.00;;;;341566;28;95794;-91
2022/04/18 00:27:41;;;;;;;;;;;13.10;65.20;13.70;99446.00;;;;335855;28;92079;-90
2022/04/18 00:27:52;;;;;;;;;;;13.10;65.20;13.70;99448.00;;;;334841;29;94759;-90
2022/04/18 00:28:05;;;;;;;;;;;13.20;65.50;13.70;99450.00;;;;335929;29;91297;-90
2022/04/18 00:28:16;;;;;;;;;;;13.10;65.40;13.60;99449.00;;;;334670;28;93942;-90
2022/04/18 00:28:28;;;;;;;;;;;13.20;65.50;13.60;99442.00;;;;334571;29;92208;-90
2022/04/18 00:28:40;;;;;;;;;;;13.10;65.20;13.50;99441.00;;;;337531;28;94645;-91
2022/04/18 00:28:52;;;;;;;;;;;13.20;65.20;13.40;99448.00;;;;335300;28;91996;-90
2022/04/18 00:29:04;;;;;;;;;;;13.10;65.10;13.40;99438.00;;;;335039;29;96490;-91
2022/04/18 00:29:15;;;;;;;;;;;13.10;65.10;13.50;99448.00;;;;334786;29;91139;-91
2022/04/18 00:29:27;;;;;;;;;;;13.10;65.10;13.50;99439.00;;;;335192;28;96168;-91
2022/04/18 00:29:39;;;;;;;;;;;13.10;65.20;13.50;99435.00;;;;334777;29;92008;-91
2022/04/18 00:29:51;;;;;;;;;;;13.20;65.20;13.50;99444.00;;;;334722;29;94814;-91
2022/04/18 00:30:03;;;;;;;;;;;13.10;65.30;13.50;99448.00;;;;341651;28;91296;-90
2022/04/18 00:30:15;;;;;;;;;;;13.10;65.40;13.60;99446.00;;;;339136;28;95066;-91
2022/04/18 00:30:26;;;;;;;;;;;13.10;65.30;13.50;99447.00;;;;334740;29;91941;-90
2022/04/18 00:30:38;;;;;;;;;;;13.10;65.30;13.60;99453.00;;;;333808;29;95106;-91
2022/04/18 00:30:50;;;;;;;;;;;13.10;65.30;13.60;99442.00;;;;330873;28;92182;-90
2022/04/18 00:31:02;;;;;;;;;;;13.10;65.10;13.60;99451.00;;;;335034;29;95207;-91
2022/04/18 00:31:14;;;;;;;;;;;13.10;65.00;13.60;99448.00;;;;333538;29;91907;-91
2022/04/18 00:31:25;;;;;;;;;;;13.10;64.90;13.60;99446.00;;;;332130;28;95229;-91
2022/04/18 00:31:37;;;;;;;;;;;13.20;64.90;13.60;99443.00;;;;335146;28;92090;-91
2022/04/18 00:31:49;;;;;;;;;;;13.20;64.80;13.50;99438.00;;;;332425;29;96362;-90
2022/04/18 00:32:01;;;;;;;;;;;13.20;64.90;13.60;99438.00;;;;338987;28;91306;-91
2022/04/18 00:32:14;;;;;;;;;;;13.20;65.00;13.60;99454.00;;;;340276;28;95244;-90
2022/04/18 00:32:27;;;;;;;;;;;13.20;65.00;13.60;99447.00;;;;335248;28;92016;-90
2022/04/18 00:32:38;;;;;;;;;;;13.20;64.90;13.60;99449.00;;;;342958;28;94384;-91
2022/04/18 00:32:50;;;;;;;;;;;13.20;65.50;13.60;99447.00;;;;340249;28;91254;-90
2022/04/18 00:33:02;;;;;;;;;;;13.20;65.00;13.50;99444.00;;;;344644;28;96148;-90
2022/04/18 00:33:14;;;;;;;;;;;13.20;65.00;13.50;99450.00;;;;334709;28;92015;-90
2022/04/18 00:33:25;;;;;;;;;;;13.20;65.20;13.50;99446.00;;;;337598;28;94505;-90
2022/04/18 00:33:37;;;;;;;;;;;13.20;65.10;13.50;99449.00;;;;334718;29;91969;-91
2022/04/18 00:33:49;;;;;;;;;;;13.20;65.00;13.50;99441.00;;;;333682;29;95655;-90
2022/04/18 00:34:01;;;;;;;;;;;13.20;64.90;13.60;99445.00;;;;336107;28;91271;-90
2022/04/18 00:34:14;;;;;;;;;;;13.20;65.10;13.60;99449.00;;;;337616;28;95183;-90
2022/04/18 00:34:26;;;;;;;;;;;13.20;65.30;13.50;99441.00;;;;334484;28;92356;-91
2022/04/18 00:34:38;;;;;;;;;;;13.20;65.30;13.60;99452.00;;;;333966;29;95826;-90
2022/04/18 00:34:50;;;;;;;;;;;13.20;65.20;13.60;99459.00;;;;332676;28;91206;-90
2022/04/18 00:35:05;;;;;;;;;;;13.20;65.20;13.60;99452.00;;;;337803;28;93044;-91
2022/04/18 00:35:16;;;;;;;;;;;13.20;65.20;13.70;99449.00;;;;333468;29;92029;-90
2022/04/18 00:35:28;;;;;;;;;;;13.20;65.10;13.70;99445.00;;;;333687;29;95805;-90
2022/04/18 00:35:40;;;;;;;;;;;13.20;65.20;13.60;99453.00;;;;333518;29;91204;-91
2022/04/18 00:35:52;;;;;;;;;;;13.20;65.20;13.50;99445.00;;;;336266;28;93489;-90
2022/04/18 00:36:04;;;;;;;;;;;13.20;65.00;13.50;99449.00;;;;333413;29;91066;-90
2022/04/18 00:36:15;;;;;;;;;;;13.20;64.90;13.50;99444.00;;;;334953;29;94209;-90
2022/04/18 00:36:27;;;;;;;;;;;13.20;64.80;13.50;99440.00;;;;334816;29;91954;-90
2022/04/18 00:36:39;;;;;;;;;;;13.20;64.80;13.50;99448.00;;;;335025;29;95623;-90
2022/04/18 00:36:51;;;;;;;;;;;13.20;64.90;13.60;99446.00;;;;334701;29;93153;-91
2022/04/18 00:37:03;;;;;;;;;;;13.10;65.00;13.60;99446.00;;;;333792;29;94457;-90
2022/04/18 00:37:15;;;;;;;;;;;13.10;64.90;13.60;99447.00;;;;334795;29;91851;-90
2022/04/18 00:37:26;;;;;;;;;;;13.20;64.80;13.50;99446.00;;;;335353;28;95574;-90
2022/04/18 00:37:40;;;;;;;;;;;13.10;65.00;13.60;99445.00;;;;334626;29;92109;-90
2022/04/18 00:37:52;;;;;;;;;;;13.10;64.90;13.60;99448.00;;;;336076;28;96059;-90
2022/04/18 00:38:03;;;;;;;;;;;13.20;64.90;13.50;99445.00;;;;336162;28;91410;-90
2022/04/18 00:38:15;;;;;;;;;;;13.20;64.80;13.50;99446.00;;;;335149;28;94966;-90
2022/04/18 00:38:28;;;;;;;;;;;13.10;64.80;13.50;99445.00;;;;333972;29;91274;-89
2022/04/18 00:38:44;;;;;;;;;;;13.10;64.90;13.50;99448.00;;;;335130;29;96019;-90
2022/04/18 00:38:55;;;;;;;;;;;13.10;65.00;13.40;99444.00;;;;331163;29;91242;-89
2022/04/18 00:39:07;;;;;;;;;;;13.10;65.20;13.40;99450.00;;;;332931;29;94668;-90
2022/04/18 00:39:21;;;;;;;;;;;13.10;65.40;13.40;99445.00;;;;332597;29;91155;-90
2022/04/18 00:39:33;;;;;;;;;;;13.10;65.20;13.40;99445.00;;;;334066;28;95066;-90
2022/04/18 00:39:45;;;;;;;;;;;13.10;65.00;13.40;99448.00;;;;334015;29;91962;-90
2022/04/18 00:39:56;;;;;;;;;;;13.10;65.10;13.30;99452.00;;;;339357;28;94831;-90
2022/04/18 00:40:11;;;;;;;;;;;13.10;65.40;13.30;99445.00;;;;340749;28;91296;-91
2022/04/18 00:40:23;;;;;;;;;;;13.00;65.50;13.30;99451.00;;;;340620;28;93898;-90
2022/04/18 00:40:34;;;;;;;;;;;13.00;65.60;13.30;99452.00;;;;337869;28;91991;-90
2022/04/18 00:40:46;;;;;;;;;;;13.00;65.60;13.30;99442.00;;;;341769;28;94908;-90
2022/04/18 00:40:58;;;;;;;;;;;13.00;65.60;13.20;99437.00;;;;338761;28;91291;-91
2022/04/18 00:41:10;;;;;;;;;;;13.00;65.60;13.20;99453.00;;;;333778;29;96116;-90
2022/04/18 00:41:22;;;;;;;;;;;13.00;65.80;13.20;99444.00;;;;335268;28;92000;-90
2022/04/18 00:41:34;;;;;;;;;;;13.00;66.00;13.20;99452.00;;;;334967;29;95797;-90
2022/04/18 00:41:45;;;;;;;;;;;13.00;66.00;13.20;99445.00;;;;336180;28;91146;-90
2022/04/18 00:41:58;;;;;;;;;;;13.00;66.10;13.10;99447.00;;;;336292;28;95551;-90
2022/04/18 00:42:10;;;;;;;;;;;13.00;66.30;13.10;99448.00;;;;334780;28;91288;-90
2022/04/18 00:42:22;;;;;;;;;;;13.00;66.50;13.10;99445.00;;;;337751;28;95202;-90
2022/04/18 00:42:34;;;;;;;;;;;13.00;66.50;13.10;99449.00;;;;338817;28;91970;-90
2022/04/18 00:42:46;;;;;;;;;;;12.90;66.50;13.10;99442.00;;;;334985;28;95613;-91
2022/04/18 00:43:15;;;;;;;;;;;12.90;66.40;13.10;99442.00;;;;334797;29;91148;-90
2022/04/18 00:43:46;;;;;;;;;;;12.90;66.60;13.10;99439.00;;;;333944;29;95113;-90
2022/04/18 00:43:58;;;;;;;;;;;12.90;66.70;12.90;99452.00;;;;333468;29;92021;-90
2022/04/18 00:44:10;;;;;;;;;;;12.90;66.40;12.90;99443.00;;;;334967;28;96083;-90
2022/04/18 00:44:22;;;;;;;;;;;12.80;66.30;12.90;99442.00;;;;333615;29;92213;-90
2022/04/18 00:44:33;;;;;;;;;;;12.80;66.20;12.90;99442.00;;;;336329;28;95525;-90
2022/04/18 00:44:45;;;;;;;;;;;12.80;66.40;12.90;99451.00;;;;334735;29;91257;-90
2022/04/18 00:44:57;;;;;;;;;;;12.80;66.40;12.90;99447.00;;;;334568;28;94717;-90
2022/04/18 00:45:09;;;;;;;;;;;12.80;66.60;12.80;99445.00;;;;332340;29;91060;-91
2022/04/18 00:45:21;;;;;;;;;;;12.80;66.60;12.90;99443.00;;;;335031;29;96025;-90
2022/04/18 00:45:33;;;;;;;;;;;12.80;66.70;12.90;99445.00;;;;334722;28;91994;-91
2022/04/18 00:45:44;;;;;;;;;;;12.70;66.80;12.80;99430.00;;;;336380;28;95968;-90
2022/04/18 00:45:56;;;;;;;;;;;12.70;67.00;12.80;99442.00;;;;336174;28;91877;-90
2022/04/18 00:46:08;;;;;;;;;;;12.70;67.00;12.80;99437.00;;;;336186;28;95700;-90
2022/04/18 00:46:20;;;;;;;;;;;12.70;67.00;12.80;99438.00;;;;335172;28;91093;-90
2022/04/18 00:46:32;;;;;;;;;;;12.70;67.00;12.70;99437.00;;;;338842;28;96139;-90
2022/04/18 00:46:44;;;;;;;;;;;12.70;67.20;12.70;99436.00;;;;341609;28;91333;-91
2022/04/18 00:46:56;;;;;;;;;;;12.60;67.30;12.70;99438.00;;;;336046;28;95479;-90
2022/04/18 00:47:08;;;;;;;;;;;12.60;67.50;12.70;99442.00;;;;335925;28;91988;-90
2022/04/18 00:47:19;;;;;;;;;;;12.60;67.60;12.70;99441.00;;;;336051;28;94552;-90
2022/04/18 00:47:31;;;;;;;;;;;12.60;67.60;12.70;99440.00;;;;333393;29;92165;-90
2022/04/18 00:47:43;;;;;;;;;;;12.60;67.50;12.70;99440.00;;;;336334;28;95122;-90
2022/04/18 00:47:55;;;;;;;;;;;12.60;67.60;12.70;99439.00;;;;335851;28;91099;-90
2022/04/18 00:48:07;;;;;;;;;;;12.50;67.80;12.70;99445.00;;;;333631;28;94936;-90
2022/04/18 00:48:19;;;;;;;;;;;12.50;67.80;12.60;99451.00;;;;333539;29;92010;-90
2022/04/18 00:48:30;;;;;;;;;;;12.50;67.90;12.70;99450.00;;;;336319;28;95471;-90
2022/04/18 00:48:43;;;;;;;;;;;12.50;68.10;12.70;99439.00;;;;332183;29;91287;-90
2022/04/18 00:48:54;;;;;;;;;;;12.50;67.90;12.70;99440.00;;;;333796;28;93373;-89
2022/04/18 00:49:06;;;;;;;;;;;12.50;68.00;12.80;99446.00;;;;334587;29;92095;-90
2022/04/18 00:49:18;;;;;;;;;;;12.50;67.80;12.80;99446.00;;;;333767;29;94618;-90
2022/04/18 00:49:33;;;;;;;;;;;12.50;68.30;12.80;99438.00;;;;336788;28;92112;-90
2022/04/18 00:49:44;;;;;;;;;;;12.50;67.60;12.80;99440.00;;;;337661;28;95824;-90
2022/04/18 00:49:56;;;;;;;;;;;12.50;67.40;12.80;99447.00;;;;337201;28;92100;-90
2022/04/18 00:50:09;;;;;;;;;;;12.50;67.20;12.80;99439.00;;;;334644;28;96184;-90
2022/04/18 00:50:21;;;;;;;;;;;12.50;67.40;12.80;99434.00;;;;334604;29;91695;-90
2022/04/18 00:50:34;;;;;;;;;;;12.50;68.50;12.70;99442.00;;;;340492;28;96176;-90
2022/04/18 00:50:46;;;;;;;;;;;12.50;68.20;12.70;99445.00;;;;342924;28;90493;-90
2022/04/18 00:50:58;;;;;;;;;;;12.50;68.20;12.70;99447.00;;;;335001;29;95073;-89
2022/04/18 00:51:14;;;;;;;;;;;12.50;68.30;12.70;99446.00;;;;334772;29;91952;-90
2022/04/18 00:51:26;;;;;;;;;;;12.50;68.30;12.70;99443.00;;;;333682;28;96084;-90
2022/04/18 00:51:38;;;;;;;;;;;12.40;68.10;12.70;99438.00;;;;340265;28;92054;-90
2022/04/18 00:51:49;;;;;;;;;;;12.40;68.70;12.70;99440.00;;;;343214;28;95679;-89
2022/04/18 00:52:03;;;;;;;;;;;12.40;68.80;12.70;99448.00;;;;334807;29;91108;-90
2022/04/18 00:52:16;;;;;;;;;;;12.40;68.50;12.70;99439.00;;;;333718;29;94419;-90
2022/04/18 00:52:27;;;;;;;;;;;12.40;68.50;12.70;99439.00;;;;333287;29;92103;-90
2022/04/18 00:52:39;;;;;;;;;;;12.40;68.50;12.70;99439.00;;;;333760;29;95362;-90
2022/04/18 00:52:54;;;;;;;;;;;12.40;68.70;12.70;99445.00;;;;335111;28;90529;-90
2022/04/18 00:53:06;;;;;;;;;;;12.40;69.10;12.70;99441.00;;;;335014;29;95433;-91
2022/04/18 00:53:18;;;;;;;;;;;12.40;69.30;12.60;99436.00;;;;340301;28;91945;-90
2022/04/18 00:53:31;;;;;;;;;;;12.40;69.50;12.60;99441.00;;;;341740;28;95179;-90
2022/04/18 00:53:43;;;;;;;;;;;12.40;69.60;12.60;99437.00;;;;333510;29;92007;-90
2022/04/18 00:53:56;;;;;;;;;;;12.40;69.60;12.50;99439.00;;;;334797;29;94082;-90
2022/04/18 00:54:08;;;;;;;;;;;12.30;69.60;12.50;99433.00;;;;332139;28;91268;-89
2022/04/18 00:54:19;;;;;;;;;;;12.30;69.60;12.50;99431.00;;;;332440;29;94822;-90
2022/04/18 00:54:32;;;;;;;;;;;12.30;69.70;12.50;99441.00;;;;333493;29;92037;-89
2022/04/18 00:54:44;;;;;;;;;;;12.30;69.70;12.50;99445.00;;;;332402;29;94621;-90
2022/04/18 00:54:56;;;;;;;;;;;12.30;69.70;12.50;99436.00;;;;334778;28;91331;-90
2022/04/18 00:55:08;;;;;;;;;;;12.30;69.70;12.50;99441.00;;;;341913;28;91743;-90
2022/04/18 00:55:20;;;;;;;;;;;12.30;69.60;12.50;99447.00;;;;337662;28;92008;-90
2022/04/18 00:55:32;;;;;;;;;;;12.30;69.60;12.60;99439.00;;;;341563;28;96403;-90
2022/04/18 00:55:44;;;;;;;;;;;12.30;69.40;12.60;99435.00;;;;340288;28;91881;-90
2022/04/18 00:55:56;;;;;;;;;;;12.30;69.30;12.70;99444.00;;;;341457;28;94058;-90
2022/04/18 00:56:11;;;;;;;;;;;12.30;69.10;12.60;99441.00;;;;342883;28;91985;-90
2022/04/18 00:56:24;;;;;;;;;;;12.30;69.20;12.60;99435.00;;;;335661;28;95789;-90
2022/04/18 00:56:35;;;;;;;;;;;12.30;69.50;12.60;99444.00;;;;332143;29;91175;-90
2022/04/18 00:56:47;;;;;;;;;;;12.30;69.60;12.60;99431.00;;;;337650;28;95817;-89
2022/04/18 00:56:59;;;;;;;;;;;12.30;69.90;12.50;99438.00;;;;336083;28;91188;-90
2022/04/18 00:57:11;;;;;;;;;;;12.30;70.00;12.50;99442.00;;;;336321;28;94215;-90
2022/04/18 00:57:23;;;;;;;;;;;12.30;70.30;12.50;99444.00;;;;332094;29;92101;-90
2022/04/18 00:57:35;;;;;;;;;;;12.30;70.10;12.50;99435.00;;;;331987;28;95470;-90
2022/04/18 00:57:47;;;;;;;;;;;12.30;69.60;12.50;99440.00;;;;334749;29;92002;-90
2022/04/18 00:58:00;;;;;;;;;;;12.30;70.00;12.40;99443.00;;;;333732;29;95734;-90
2022/04/18 00:58:12;;;;;;;;;;;12.30;70.40;12.40;99438.00;;;;332102;28;92030;-90
2022/04/18 00:58:23;;;;;;;;;;;12.20;70.60;12.40;99446.00;;;;339725;28;95723;-90
2022/04/18 00:58:35;;;;;;;;;;;12.20;70.40;12.50;99442.00;;;;340092;28;91959;-90
2022/04/18 00:58:47;;;;;;;;;;;12.20;70.10;12.50;99443.00;;;;335034;29;94714;-90
2022/04/18 00:58:59;;;;;;;;;;;12.20;69.90;12.40;99443.00;;;;334829;29;90383;-90
2022/04/18 00:59:11;;;;;;;;;;;12.20;70.00;12.50;99434.00;;;;341822;28;94938;-90
2022/04/18 00:59:23;;;;;;;;;;;12.20;70.00;12.50;99440.00;;;;340865;28;92070;-90
2022/04/18 00:59:37;;;;;;;;;;;12.20;69.50;12.50;99443.00;;;;335024;29;95013;-90
2022/04/18 00:59:49;;;;;;;;;;;12.20;69.50;12.50;99443.00;;;;333566;28;91033;-90
2022/04/18 01:00:00;;;;;;;;;;;12.20;69.50;12.50;99447.00;;;;335105;29;94036;-90
2022/04/18 01:00:13;;;;;;;;;;;12.20;69.70;12.50;99435.00;;;;340072;28;92051;-90